Time;durP1;ratioP1;P1;durP2;ratioP2;P2;SDS_P1;SDS_P2;PMS_P1;PMS_P2;Temp;Humidity;BMP_temperature;BMP_pressure;BME280_temperature;BME280_humidity;BME280_pressure;Samples;Min_cycle;Max_cycle;Signal;HPM_P1;HPM_P2
2021/08/07 00:01:30;;;;;;;4.47;4.03;;;16.10;99.90;;;;;;5015585;28;20537;-66
2021/08/07 00:03:57;;;;;;;3.83;3.40;;;16.10;99.90;;;;;;5007346;28;20492;-66
2021/08/07 00:06:25;;;;;;;4.10;3.73;;;16.10;99.90;;;;;;5015527;28;20528;-66
2021/08/07 00:08:55;;;;;;;3.73;3.30;;;16.20;99.90;;;;;;5016576;28;20526;-65
2021/08/07 00:11:22;;;;;;;3.97;3.40;;;16.20;99.90;;;;;;5016577;28;20463;-65
2021/08/07 00:13:52;;;;;;;4.20;3.90;;;16.10;99.90;;;;;;5016315;28;20546;-66
2021/08/07 00:16:18;;;;;;;3.53;3.23;;;16.10;99.90;;;;;;5016273;28;20499;-65
2021/08/07 00:18:46;;;;;;;3.83;3.53;;;16.10;99.90;;;;;;5017662;28;20872;-65
2021/08/07 00:21:13;;;;;;;3.87;3.00;;;16.10;99.90;;;;;;5017136;28;20468;-65
2021/08/07 00:23:42;;;;;;;3.90;3.37;;;16.10;99.90;;;;;;5017674;28;20554;-65
2021/08/07 00:26:10;;;;;;;8.37;3.73;;;16.10;99.90;;;;;;5016921;28;20492;-65
2021/08/07 00:28:37;;;;;;;3.80;3.50;;;16.00;99.90;;;;;;5017764;28;20463;-65
2021/08/07 00:31:07;;;;;;;3.40;3.10;;;16.00;99.90;;;;;;5015556;28;20464;-65
2021/08/07 00:33:34;;;;;;;5.77;3.20;;;16.00;99.90;;;;;;5008886;28;20461;-65
2021/08/07 00:36:04;;;;;;;4.10;3.77;;;16.00;99.90;;;;;;4999891;28;20468;-65
2021/08/07 00:38:31;;;;;;;4.30;3.00;;;16.00;99.90;;;;;;5004884;28;20772;-65
2021/08/07 00:40:58;;;;;;;4.13;3.70;;;15.90;99.90;;;;;;5008177;28;20819;-65
2021/08/07 00:43:28;;;;;;;4.53;3.80;;;15.90;99.90;;;;;;5004096;28;20514;-65
2021/08/07 00:45:58;;;;;;;4.10;3.70;;;15.90;99.90;;;;;;5016295;28;20562;-65
2021/08/07 00:48:26;;;;;;;3.60;3.30;;;15.90;99.90;;;;;;5017066;28;20514;-65
2021/08/07 00:50:53;;;;;;;3.63;3.33;;;15.80;99.90;;;;;;5017461;28;20796;-65
2021/08/07 00:53:21;;;;;;;6.67;3.67;;;15.70;99.90;;;;;;5016446;28;20456;-65
2021/08/07 00:55:48;;;;;;;4.33;3.80;;;15.70;99.90;;;;;;5016219;28;20756;-65
2021/08/07 00:58:18;;;;;;;3.70;3.40;;;15.70;99.90;;;;;;5018155;28;20459;-65
2021/08/07 01:00:49;;;;;;;4.53;4.10;;;15.60;99.90;;;;;;5015791;28;20452;-65
2021/08/07 01:03:26;;;;;;;3.90;3.50;;;15.60;99.90;;;;;;5019295;28;20466;-65
2021/08/07 01:06:03;;;;;;;5.33;4.80;;;15.60;99.90;;;;;;5008096;28;20468;-65
2021/08/07 01:08:37;;;;;;;4.80;3.87;;;15.60;99.90;;;;;;5011849;28;20562;-65
2021/08/07 01:11:15;;;;;;;5.30;3.97;;;15.50;99.90;;;;;;5014949;28;20861;-65
2021/08/07 01:13:46;;;;;;;6.20;3.97;;;15.50;99.90;;;;;;5017778;28;20463;-65
2021/08/07 01:16:22;;;;;;;6.23;4.90;;;15.50;99.90;;;;;;5016845;28;20496;-65
2021/08/07 01:18:51;;;;;;;15.43;12.00;;;15.50;99.90;;;;;;5017706;28;20496;-65
2021/08/07 01:21:23;;;;;;;11.90;8.47;;;15.50;99.90;;;;;;5018490;28;20918;-65
2021/08/07 01:23:53;;;;;;;22.93;13.33;;;15.40;99.90;;;;;;5014875;28;20531;-65
2021/08/07 01:26:29;;;;;;;7.37;5.70;;;15.30;99.90;;;;;;5015228;28;20558;-65
2021/08/07 01:28:59;;;;;;;7.13;5.40;;;15.30;99.90;;;;;;5018328;28;20745;-65
2021/08/07 01:31:27;;;;;;;7.63;5.80;;;15.30;99.90;;;;;;5018931;28;20821;-65
2021/08/07 01:33:56;;;;;;;7.90;6.50;;;15.30;99.90;;;;;;5019056;28;20460;-65
2021/08/07 01:36:27;;;;;;;6.40;5.20;;;15.20;99.90;;;;;;5015105;28;20457;-65
2021/08/07 01:38:54;;;;;;;7.83;4.63;;;15.20;99.90;;;;;;5011417;28;20768;-65
2021/08/07 01:41:23;;;;;;;8.10;6.07;;;15.20;99.90;;;;;;5013684;28;20881;-65
2021/08/07 01:43:51;;;;;;;6.10;4.30;;;15.20;99.90;;;;;;5018018;28;20547;-65
2021/08/07 01:46:20;;;;;;;6.53;4.20;;;15.10;99.90;;;;;;5017878;28;20905;-65
2021/08/07 01:48:55;;;;;;;7.50;5.47;;;15.10;99.90;;;;;;5019115;28;20523;-65
2021/08/07 01:51:26;;;;;;;3.63;3.33;;;15.10;99.90;;;;;;5013708;28;20947;-65
2021/08/07 01:53:55;;;;;;;5.50;4.40;;;15.10;99.90;;;;;;5017986;28;20947;-65
2021/08/07 01:56:28;;;;;;;7.20;4.80;;;15.20;99.90;;;;;;5018635;28;20522;-65
2021/08/07 01:58:59;;;;;;;8.93;7.47;;;15.20;99.90;;;;;;5018285;28;20515;-65
2021/08/07 02:01:29;;;;;;;10.57;5.00;;;15.20;99.90;;;;;;5018003;28;20460;-65
2021/08/07 02:03:58;;;;;;;5.40;4.70;;;15.20;99.90;;;;;;5011276;28;20476;-65
2021/08/07 02:06:26;;;;;;;5.00;4.40;;;15.20;99.90;;;;;;5011505;28;20467;-65
2021/08/07 02:08:53;;;;;;;11.90;9.07;;;15.30;99.90;;;;;;5016795;28;20900;-65
2021/08/07 02:11:21;;;;;;;6.67;4.27;;;15.30;99.90;;;;;;5017797;28;20456;-65
2021/08/07 02:13:49;;;;;;;9.60;4.80;;;15.30;99.90;;;;;;5017584;28;20978;-65
2021/08/07 02:16:18;;;;;;;5.77;3.40;;;15.30;99.90;;;;;;5017773;28;20460;-65
2021/08/07 02:18:47;;;;;;;4.87;4.37;;;15.30;99.90;;;;;;5017920;28;20525;-65
2021/08/07 02:21:17;;;;;;;10.60;6.53;;;15.30;99.90;;;;;;5017370;28;20541;-65
2021/08/07 02:23:48;;;;;;;8.97;5.30;;;15.30;99.90;;;;;;5014399;28;20518;-65
2021/08/07 02:26:16;;;;;;;6.50;4.37;;;15.30;99.90;;;;;;5017847;28;20567;-65
2021/08/07 02:28:45;;;;;;;5.30;4.80;;;15.40;99.90;;;;;;5017847;28;20787;-65
2021/08/07 02:31:12;;;;;;;5.37;3.93;;;15.40;99.90;;;;;;5016176;28;20468;-65
2021/08/07 02:33:40;;;;;;;6.20;4.90;;;15.40;99.90;;;;;;5005462;28;20508;-65
2021/08/07 02:36:10;;;;;;;5.00;4.40;;;15.40;99.90;;;;;;5015177;28;20526;-65
2021/08/07 02:38:38;;;;;;;6.40;4.67;;;15.40;99.90;;;;;;5013884;28;20835;-65
2021/08/07 02:41:06;;;;;;;8.47;4.90;;;15.40;99.90;;;;;;5005957;28;20971;-65
2021/08/07 02:43:34;;;;;;;6.87;5.60;;;15.30;99.90;;;;;;5017094;28;20986;-65
2021/08/07 02:46:01;;;;;;;8.80;5.30;;;15.40;99.90;;;;;;5010156;28;20531;-65
2021/08/07 02:48:29;;;;;;;7.97;4.63;;;15.40;99.90;;;;;;5012126;28;20452;-65
2021/08/07 02:50:57;;;;;;;5.77;3.90;;;15.40;99.90;;;;;;5016171;28;20460;-65
2021/08/07 02:53:28;;;;;;;6.83;5.10;;;15.40;99.90;;;;;;5017746;28;20910;-65
2021/08/07 02:55:55;;;;;;;5.80;3.70;;;15.30;99.90;;;;;;5017277;28;20471;-65
2021/08/07 02:58:23;;;;;;;3.83;3.50;;;15.30;99.90;;;;;;5017842;28;20726;-65
2021/08/07 03:00:53;;;;;;;4.07;3.63;;;15.20;99.90;;;;;;5018916;28;20508;-65
2021/08/07 03:03:20;;;;;;;7.63;4.30;;;15.20;99.90;;;;;;5009795;28;20476;-65
2021/08/07 03:05:47;;;;;;;4.27;3.90;;;15.20;99.90;;;;;;5008775;28;20554;-65
2021/08/07 03:08:14;;;;;;;5.00;4.13;;;15.20;99.90;;;;;;5000551;28;20461;-65
2021/08/07 03:10:43;;;;;;;5.53;4.20;;;15.10;99.90;;;;;;5017942;28;20438;-65
2021/08/07 03:13:10;;;;;;;4.97;3.53;;;15.10;99.90;;;;;;5011348;28;20976;-65
2021/08/07 03:15:37;;;;;;;4.40;3.93;;;15.00;99.90;;;;;;4998538;28;20506;-65
2021/08/07 03:18:04;;;;;;;4.33;3.50;;;15.00;99.90;;;;;;5004992;28;20554;-65
2021/08/07 03:20:34;;;;;;;5.23;3.70;;;14.90;99.90;;;;;;5004050;28;20901;-65
2021/08/07 03:23:02;;;;;;;4.60;4.00;;;15.00;99.90;;;;;;5000309;28;20799;-65
2021/08/07 03:25:29;;;;;;;4.43;4.03;;;14.90;99.90;;;;;;5012787;28;20937;-65
2021/08/07 03:27:58;;;;;;;4.47;3.80;;;14.90;99.90;;;;;;5004723;28;20813;-65
2021/08/07 03:30:25;;;;;;;4.30;3.57;;;14.90;99.90;;;;;;5001206;28;20539;-65
2021/08/07 03:32:52;;;;;;;5.10;3.40;;;14.90;99.90;;;;;;5012824;28;20880;-65
2021/08/07 03:35:19;;;;;;;5.77;3.47;;;14.90;99.90;;;;;;5004762;28;20465;-65
2021/08/07 03:37:47;;;;;;;5.43;3.70;;;14.90;99.90;;;;;;4998184;28;20535;-65
2021/08/07 03:40:15;;;;;;;5.40;3.77;;;14.90;99.90;;;;;;4998172;28;20435;-65
2021/08/07 03:42:43;;;;;;;4.53;3.50;;;14.80;99.90;;;;;;5005898;28;20880;-65
2021/08/07 03:45:12;;;;;;;4.20;3.80;;;14.90;99.90;;;;;;5015782;28;20485;-65
2021/08/07 03:47:48;;;;;;;4.30;3.90;;;14.90;99.90;;;;;;5006337;28;20534;-65
2021/08/07 03:50:16;;;;;;;4.00;3.40;;;14.90;99.90;;;;;;5012182;28;20473;-65
2021/08/07 03:52:43;;;;;;;5.80;3.80;;;15.00;99.90;;;;;;5009537;28;20461;-65
2021/08/07 03:55:10;;;;;;;4.40;4.00;;;15.00;99.90;;;;;;5009777;28;20452;-65
2021/08/07 03:57:53;;;;;;;3.80;3.23;;;15.00;99.90;;;;;;5010823;28;20554;-65
2021/08/07 04:00:23;;;;;;;8.50;4.70;;;15.00;99.90;;;;;;5009886;28;20526;-65
2021/08/07 04:02:50;;;;;;;4.10;3.30;;;15.00;99.90;;;;;;5012971;28;20829;-65
2021/08/07 04:05:17;;;;;;;4.47;3.90;;;15.00;99.90;;;;;;5006262;28;20895;-65
2021/08/07 04:07:45;;;;;;;6.70;5.50;;;15.00;99.90;;;;;;5016822;28;20522;-65
2021/08/07 04:10:12;;;;;;;4.30;3.60;;;15.00;99.90;;;;;;5017393;28;20892;-65
2021/08/07 04:12:40;;;;;;;6.33;3.37;;;14.90;99.90;;;;;;5017480;28;20464;-65
2021/08/07 04:15:08;;;;;;;6.43;3.87;;;15.00;99.90;;;;;;5016695;28;20806;-65
2021/08/07 04:17:38;;;;;;;4.00;3.60;;;14.90;99.90;;;;;;5017441;28;20757;-65
2021/08/07 04:20:06;;;;;;;4.30;3.70;;;15.00;99.90;;;;;;5017181;28;20761;-65
2021/08/07 04:22:33;;;;;;;4.20;3.37;;;15.00;99.90;;;;;;5004002;28;20531;-65
2021/08/07 04:25:00;;;;;;;4.50;3.77;;;14.90;99.90;;;;;;4997376;28;20570;-66
2021/08/07 04:27:27;;;;;;;4.60;3.30;;;14.90;99.90;;;;;;5003093;28;20456;-67
2021/08/07 04:29:54;;;;;;;4.37;3.83;;;14.90;99.90;;;;;;5017840;28;20460;-67
2021/08/07 04:32:25;;;;;;;4.80;3.40;;;14.90;99.90;;;;;;5019547;28;20975;-67
2021/08/07 04:34:53;;;;;;;3.97;3.57;;;15.00;99.90;;;;;;5020060;28;20456;-67
2021/08/07 04:37:20;;;;;;;4.63;3.03;;;15.00;99.90;;;;;;5019885;28;20800;-67
2021/08/07 04:39:48;;;;;;;4.67;3.43;;;15.10;99.90;;;;;;5017128;28;20752;-67
2021/08/07 04:42:15;;;;;;;5.13;4.03;;;15.10;99.90;;;;;;5019315;28;20455;-68
2021/08/07 04:44:42;;;;;;;4.73;3.50;;;15.20;99.90;;;;;;5019750;28;20515;-67
2021/08/07 04:47:09;;;;;;;3.93;3.03;;;15.10;99.90;;;;;;5019933;28;20472;-67
2021/08/07 04:49:36;;;;;;;5.83;3.07;;;15.10;99.90;;;;;;5019589;28;20455;-67
2021/08/07 04:52:06;;;;;;;3.13;2.93;;;15.20;99.90;;;;;;5019112;28;20510;-67
2021/08/07 04:54:33;;;;;;;3.70;2.97;;;15.20;99.90;;;;;;5019931;28;20456;-67
2021/08/07 04:57:00;;;;;;;3.70;3.37;;;15.30;99.90;;;;;;5019535;28;20459;-67
2021/08/07 04:59:27;;;;;;;7.00;3.57;;;15.30;99.90;;;;;;5016704;28;20774;-67
2021/08/07 05:01:54;;;;;;;4.57;3.73;;;15.20;99.90;;;;;;5018972;28;20530;-67
2021/08/07 05:04:24;;;;;;;3.80;3.10;;;15.20;99.90;;;;;;5007299;28;20483;-67
2021/08/07 05:06:51;;;;;;;6.30;4.00;;;15.30;99.90;;;;;;5015542;28;20500;-67
2021/08/07 05:09:19;;;;;;;3.57;3.27;;;15.40;99.90;;;;;;5018273;28;20786;-67
2021/08/07 05:11:46;;;;;;;4.77;3.20;;;15.50;99.90;;;;;;5018855;28;20506;-67
2021/08/07 05:14:13;;;;;;;4.10;3.27;;;15.70;99.90;;;;;;5019325;28;20504;-67
2021/08/07 05:16:40;;;;;;;4.07;3.30;;;15.80;99.90;;;;;;5020104;28;20530;-67
2021/08/07 05:19:07;;;;;;;5.43;3.40;;;15.90;99.90;;;;;;5020114;28;20464;-67
2021/08/07 05:21:34;;;;;;;3.60;3.23;;;16.00;99.90;;;;;;5015245;28;20507;-67
2021/08/07 05:24:01;;;;;;;3.37;3.00;;;16.00;99.90;;;;;;5019056;28;20487;-67
2021/08/07 05:26:30;;;;;;;3.50;2.73;;;16.00;99.90;;;;;;5019898;28;20518;-67
2021/08/07 05:28:57;;;;;;;3.50;3.17;;;16.00;99.90;;;;;;5019322;28;20452;-67
2021/08/07 05:31:24;;;;;;;4.00;2.67;;;16.10;99.90;;;;;;5019240;28;20782;-67
2021/08/07 05:33:51;;;;;;;3.20;2.73;;;16.10;99.90;;;;;;5019456;28;20430;-67
2021/08/07 05:36:18;;;;;;;9.10;3.60;;;16.10;99.90;;;;;;5019413;28;20448;-67
2021/08/07 05:38:45;;;;;;;4.43;3.13;;;16.20;99.90;;;;;;5019145;28;20964;-67
2021/08/07 05:41:12;;;;;;;4.50;3.10;;;16.20;99.90;;;;;;5018666;28;20885;-67
2021/08/07 05:43:40;;;;;;;3.30;3.00;;;16.20;99.90;;;;;;5019093;28;20487;-67
2021/08/07 05:46:07;;;;;;;5.13;3.10;;;16.20;99.90;;;;;;5019308;28;20861;-67
2021/08/07 05:48:34;;;;;;;7.30;2.80;;;16.20;99.90;;;;;;5016507;28;20486;-67
2021/08/07 05:51:01;;;;;;;4.07;2.60;;;16.30;99.90;;;;;;5019305;28;21003;-67
2021/08/07 05:53:28;;;;;;;3.40;2.60;;;16.40;99.90;;;;;;5018798;28;20460;-67
2021/08/07 05:55:55;;;;;;;3.37;3.00;;;16.50;99.90;;;;;;5019810;28;20456;-67
2021/08/07 05:58:22;;;;;;;4.10;2.83;;;16.70;99.90;;;;;;5019796;28;20943;-67
2021/08/07 06:00:52;;;;;;;3.60;2.73;;;16.80;99.90;;;;;;5019786;28;20435;-67
2021/08/07 06:42:05;;;;;;;4.50;3.30;;;17.60;99.90;;;;;;2611719;23;20492;-66
2021/08/07 06:44:32;;;;;;;4.03;2.80;;;17.60;99.90;;;;;;5018563;28;20463;-66
2021/08/07 06:46:59;;;;;;;3.63;2.80;;;17.60;99.90;;;;;;5018597;28;20471;-66
2021/08/07 06:49:26;;;;;;;4.10;2.90;;;17.70;99.90;;;;;;5018334;28;20820;-66
2021/08/07 06:51:53;;;;;;;5.40;3.00;;;17.90;99.90;;;;;;5018407;28;20518;-66
2021/08/07 06:54:20;;;;;;;5.23;3.00;;;18.10;99.90;;;;;;5018458;28;20467;-66
2021/08/07 06:56:49;;;;;;;4.93;2.73;;;18.00;99.90;;;;;;5018663;28;20868;-66
2021/08/07 06:59:17;;;;;;;3.30;2.40;;;17.90;99.90;;;;;;5019300;28;20469;-65
2021/08/07 07:01:44;;;;;;;4.00;2.83;;;17.60;99.90;;;;;;5018684;28;20896;-65
2021/08/07 07:04:11;;;;;;;3.17;2.83;;;17.50;99.90;;;;;;5003819;28;20991;-65
2021/08/07 07:06:38;;;;;;;3.77;2.80;;;17.40;99.90;;;;;;4999365;28;20489;-65
2021/08/07 07:09:05;;;;;;;6.40;3.60;;;17.50;99.90;;;;;;4998966;28;20442;-66
2021/08/07 07:49:08;;;;;;;6.23;3.33;;;19.30;99.90;;;;;;5386654;23;20506;-65
2021/08/07 07:51:39;;;;;;;5.27;3.50;;;19.20;99.90;;;;;;4998094;28;20441;-65
2021/08/07 07:54:06;;;;;;;5.30;3.47;;;19.20;99.90;;;;;;4998048;28;20912;-65
2021/08/07 07:56:33;;;;;;;10.40;3.50;;;19.40;99.90;;;;;;4998026;28;20893;-65
2021/08/07 07:59:01;;;;;;;3.10;2.80;;;19.40;99.90;;;;;;4998036;28;20487;-65
2021/08/07 08:01:28;;;;;;;4.33;3.00;;;19.50;99.90;;;;;;4997565;28;20902;-65
2021/08/07 08:03:55;;;;;;;6.07;3.20;;;19.50;99.90;;;;;;4986472;28;20473;-65
2021/08/07 08:06:25;;;;;;;3.73;2.80;;;19.40;99.90;;;;;;4996976;28;20488;-64
2021/08/07 08:08:52;;;;;;;3.30;2.90;;;19.20;99.90;;;;;;4997561;28;20495;-64
2021/08/07 08:11:20;;;;;;;4.20;3.20;;;19.20;99.90;;;;;;4997565;28;20773;-64
2021/08/07 08:13:49;;;;;;;6.63;4.43;;;19.40;99.90;;;;;;4997713;28;20519;-64
2021/08/07 08:54:26;;;;;;;4.73;3.27;;;23.20;95.70;;;;;;5170995;23;20492;-63
2021/08/07 08:56:57;;;;;;;3.27;2.80;;;23.70;95.60;;;;;;5016317;28;20507;-63
2021/08/07 08:59:25;;;;;;;6.33;2.83;;;23.80;93.30;;;;;;5015863;28;20587;-63
2021/08/07 09:01:55;;;;;;;3.30;2.70;;;23.80;94.40;;;;;;5013417;28;20955;-63
2021/08/07 09:04:23;;;;;;;3.73;3.30;;;23.90;92.50;;;;;;5005830;28;20475;-63
2021/08/07 09:06:52;;;;;;;4.00;2.80;;;23.90;91.60;;;;;;5013209;28;20491;-62
2021/08/07 09:09:34;;;;;;;3.83;2.70;;;23.40;92.50;;;;;;5015812;28;20742;-63
2021/08/07 09:12:05;;;;;;;4.97;2.50;;;23.50;93.90;;;;;;5014340;28;20460;-62
2021/08/07 09:14:35;;;;;;;3.27;2.67;;;23.20;93.60;;;;;;5013964;28;20929;-62
2021/08/07 09:17:16;;;;;;;3.50;3.20;;;22.90;93.70;;;;;;5017822;28;20439;-62
2021/08/07 09:19:59;;;;;;;3.60;2.83;;;22.40;95.50;;;;;;5018003;28;20502;-62
2021/08/07 09:22:30;;;;;;;4.40;3.33;;;22.50;95.90;;;;;;5017950;28;20532;-62
2021/08/07 09:25:09;;;;;;;4.90;3.03;;;22.50;96.00;;;;;;5019442;28;20460;-62
2021/08/07 09:27:40;;;;;;;3.90;2.87;;;22.30;93.80;;;;;;5016970;28;21005;-63
2021/08/07 09:30:28;;;;;;;6.27;3.13;;;22.80;96.70;;;;;;5019417;28;20522;-63
2021/08/07 09:32:59;;;;;;;5.00;2.63;;;23.60;92.80;;;;;;5016369;28;20482;-62
2021/08/07 09:35:28;;;;;;;4.37;2.60;;;23.30;88.20;;;;;;5019287;28;20456;-62
2021/08/07 09:38:22;;;;;;;4.47;2.70;;;22.60;90.40;;;;;;5016883;28;20452;-62
2021/08/07 09:40:53;;;;;;;4.17;2.83;;;22.00;93.50;;;;;;5004539;28;20504;-61
2021/08/07 09:43:27;;;;;;;3.10;2.80;;;21.40;95.80;;;;;;5018837;28;20460;-62
2021/08/07 09:46:16;;;;;;;5.20;3.30;;;21.00;98.30;;;;;;5015998;28;20960;-62
2021/08/07 09:48:44;;;;;;;4.83;2.93;;;21.00;99.90;;;;;;5012800;28;20460;-61
2021/08/07 09:51:19;;;;;;;7.30;2.90;;;21.00;99.90;;;;;;5018211;28;20455;-62
2021/08/07 09:53:59;;;;;;;6.87;3.70;;;20.90;99.90;;;;;;5018540;28;20533;-62
2021/08/07 09:56:26;;;;;;;5.63;2.83;;;20.80;99.90;;;;;;5017917;28;20489;-61
2021/08/07 09:59:06;;;;;;;3.47;2.37;;;20.70;99.90;;;;;;5015942;28;20452;-62
2021/08/07 10:01:35;;;;;;;3.50;3.20;;;20.80;99.90;;;;;;5016255;28;20456;-62
2021/08/07 10:04:06;;;;;;;5.50;3.07;;;20.80;99.90;;;;;;5009065;28;20563;-62
2021/08/07 10:06:35;;;;;;;4.70;3.40;;;21.00;99.90;;;;;;5013653;28;20487;-63
2021/08/07 10:09:01;;;;;;;4.37;3.40;;;21.30;99.90;;;;;;5017654;28;20955;-62
2021/08/07 10:11:31;;;;;;;6.23;3.23;;;21.70;96.80;;;;;;5018212;28;20452;-63
2021/08/07 10:14:01;;;;;;;5.00;3.07;;;22.00;94.80;;;;;;5017276;28;20463;-63
2021/08/07 10:16:34;;;;;;;4.77;2.77;;;22.00;93.90;;;;;;5018335;28;20508;-63
2021/08/07 10:19:02;;;;;;;4.10;3.20;;;22.00;93.70;;;;;;5017989;28;20518;-63
2021/08/07 10:21:31;;;;;;;4.47;3.20;;;22.20;94.20;;;;;;5015641;28;20463;-62
2021/08/07 10:24:01;;;;;;;4.00;3.00;;;22.20;92.50;;;;;;5018419;28;20864;-63
2021/08/07 11:39:24;;;;;;;3.10;2.63;;;22.00;85.20;;;;;;2786011;23;20463;-61
2021/08/07 12:16:29;;;;;;;4.80;2.47;;;20.20;99.90;;;;;;3825896;23;20574;-69
2021/08/07 12:18:58;;;;;;;3.90;2.97;;;20.70;99.90;;;;;;5018120;28;20471;-71
2021/08/07 12:21:36;;;;;;;5.67;3.10;;;21.20;99.90;;;;;;5014220;28;20947;-73
2021/08/07 12:24:08;;;;;;;4.70;3.50;;;21.70;99.90;;;;;;5016931;28;20551;-72
2021/08/07 12:26:41;;;;;;;3.13;2.30;;;22.20;99.90;;;;;;5016975;28;20492;-71
2021/08/07 12:29:10;;;;;;;3.13;2.50;;;22.20;99.90;;;;;;5016790;28;20958;-70
2021/08/07 12:31:41;;;;;;;3.93;2.57;;;22.70;99.90;;;;;;5015722;28;20491;-69
2021/08/07 12:34:14;;;;;;;2.40;2.20;;;23.20;99.90;;;;;;5016140;28;20452;-68
2021/08/07 12:36:42;;;;;;;3.87;2.80;;;23.60;99.90;;;;;;5016346;28;20750;-66
2021/08/07 12:39:09;;;;;;;3.57;3.23;;;23.80;99.00;;;;;;5016560;28;20703;-66
2021/08/07 12:41:37;;;;;;;3.00;2.80;;;23.90;97.40;;;;;;5016298;28;20456;-65
2021/08/07 12:44:22;;;;;;;4.70;2.70;;;23.70;92.50;;;;;;5016307;28;20500;-65
2021/08/07 12:46:54;;;;;;;2.70;2.43;;;23.70;92.80;;;;;;5016288;28;20484;-64
2021/08/07 12:49:38;;;;;;;3.00;2.60;;;24.10;91.80;;;;;;5016657;28;20439;-63
2021/08/07 12:52:08;;;;;;;5.47;2.57;;;24.10;90.10;;;;;;5020021;28;20872;-64
2021/08/07 12:54:35;;;;;;;2.90;2.70;;;23.50;92.80;;;;;;5020307;28;20876;-64
2021/08/07 12:57:20;;;;;;;3.50;2.80;;;23.90;95.20;;;;;;5019856;28;20463;-63
2021/08/07 12:59:51;;;;;;;4.90;3.07;;;24.70;91.50;;;;;;5019611;28;20456;-63
2021/08/07 13:02:20;;;;;;;9.87;7.60;;;24.80;88.90;;;;;;5019704;28;20529;-63
2021/08/07 13:04:52;;;;;;;4.80;4.40;;;24.70;87.10;;;;;;5002103;28;20504;-63
2021/08/07 13:07:29;;;;;;;2.63;2.43;;;24.90;84.00;;;;;;5000863;28;20505;-63
2021/08/07 13:10:21;;;;;;;4.53;4.10;;;25.10;75.10;;;;;;5001078;28;20479;-64
2021/08/07 13:12:49;;;;;;;3.50;2.70;;;25.10;75.50;;;;;;5000994;28;20547;-63
2021/08/07 13:15:16;;;;;;;5.67;3.40;;;25.50;76.20;;;;;;5001006;28;20439;-63
2021/08/07 13:17:50;;;;;;;3.30;2.97;;;26.00;72.50;;;;;;5001208;28;20765;-64
2021/08/07 13:20:36;;;;;;;2.77;2.57;;;26.20;72.50;;;;;;5000710;28;20465;-63
2021/08/07 13:23:03;;;;;;;3.13;2.70;;;26.10;62.40;;;;;;5000646;28;20844;-63
2021/08/07 13:25:31;;;;;;;3.47;3.27;;;25.50;64.10;;;;;;5000883;28;20461;-64
2021/08/07 13:28:10;;;;;;;2.83;2.17;;;25.80;62.10;;;;;;5000353;28;20562;-63
2021/08/07 13:30:45;;;;;;;2.80;2.60;;;25.40;60.20;;;;;;5000581;28;20764;-64
2021/08/07 13:33:14;;;;;;;2.73;2.53;;;25.00;61.10;;;;;;4999413;28;20468;-64
2021/08/07 13:35:44;;;;;;;3.27;2.87;;;25.30;62.00;;;;;;5000698;28;20894;-64
2021/08/07 13:38:11;;;;;;;3.00;2.80;;;25.70;61.50;;;;;;5000631;28;20468;-63
2021/08/07 13:40:40;;;;;;;2.83;2.63;;;26.00;59.40;;;;;;4999172;28;20443;-63
2021/08/07 13:43:07;;;;;;;2.47;2.27;;;25.90;58.80;;;;;;4999079;28;20914;-63
2021/08/07 13:45:34;;;;;;;3.00;2.70;;;25.60;57.80;;;;;;4999631;28;20439;-64
2021/08/07 13:48:01;;;;;;;2.77;2.57;;;25.60;59.10;;;;;;4999546;28;20620;-63
2021/08/07 13:50:35;;;;;;;3.70;2.50;;;25.50;60.70;;;;;;4998984;28;20531;-63
2021/08/07 14:28:38;;;;;;;3.20;2.90;;;26.60;56.90;;;;;;2865183;23;20881;-60
2021/08/07 14:31:08;;;;;;;3.10;2.80;;;26.70;55.10;;;;;;5019866;28;20522;-62
2021/08/07 14:33:38;;;;;;;2.50;2.30;;;26.70;54.90;;;;;;5019113;28;20467;-60
2021/08/07 14:36:05;;;;;;;2.37;2.20;;;26.90;55.30;;;;;;5018686;28;20526;-59
2021/08/07 14:38:32;;;;;;;2.67;2.20;;;27.00;54.00;;;;;;5013481;28;20511;-60
2021/08/07 14:40:59;;;;;;;2.97;2.13;;;26.60;55.50;;;;;;4999295;28;20473;-59
2021/08/07 14:43:27;;;;;;;2.53;2.33;;;26.20;56.20;;;;;;5001552;28;20527;-60
2021/08/07 14:45:55;;;;;;;3.13;2.83;;;25.80;55.90;;;;;;5018601;28;20522;-62
2021/08/07 14:48:22;;;;;;;3.20;2.20;;;26.00;56.90;;;;;;5018672;28;20554;-59
2021/08/07 14:50:56;;;;;;;4.27;3.87;;;25.80;54.70;;;;;;5018626;28;20468;-59
2021/08/07 14:53:24;;;;;;;5.00;4.53;;;25.20;54.40;;;;;;5018522;28;20467;-59
2021/08/07 14:55:53;;;;;;;2.90;2.70;;;24.60;55.80;;;;;;5018521;28;20900;-59
2021/08/07 15:39:30;;;;;;;2.50;2.20;;;23.40;63.60;;;;;;5453366;23;20455;-59
2021/08/07 15:41:57;;;;;;;3.30;2.87;;;23.20;62.80;;;;;;4978341;28;20466;-61
2021/08/07 15:44:24;;;;;;;3.40;3.07;;;23.00;63.30;;;;;;4978865;28;20509;-60
2021/08/07 15:46:51;;;;;;;2.83;2.60;;;22.90;63.90;;;;;;4978815;28;20594;-61
2021/08/07 15:49:18;;;;;;;2.27;2.07;;;22.90;64.20;;;;;;4978521;28;20471;-61
2021/08/07 15:51:45;;;;;;;3.63;2.80;;;23.60;64.50;;;;;;4978145;28;20528;-61
2021/08/07 15:54:13;;;;;;;3.27;2.97;;;24.00;61.70;;;;;;4978463;28;20503;-61
2021/08/07 15:56:46;;;;;;;3.77;3.00;;;24.00;60.50;;;;;;4978497;28;20466;-61
2021/08/07 15:59:13;;;;;;;3.30;3.00;;;23.70;59.90;;;;;;4978291;28;20441;-60
2021/08/07 16:01:40;;;;;;;2.30;2.10;;;23.00;61.00;;;;;;4978839;28;20466;-60
2021/08/07 16:04:07;;;;;;;5.33;2.87;;;22.60;62.60;;;;;;4967617;28;20485;-60
2021/08/07 16:06:34;;;;;;;3.20;3.00;;;22.40;63.40;;;;;;4987584;28;20501;-60
2021/08/07 16:09:01;;;;;;;3.53;2.60;;;22.20;64.80;;;;;;4985955;28;20500;-61
2021/08/07 16:11:31;;;;;;;4.47;3.00;;;22.10;63.60;;;;;;4997453;28;20472;-60
2021/08/07 16:14:00;;;;;;;2.70;2.40;;;22.10;63.10;;;;;;4984477;28;20807;-60
2021/08/07 16:16:27;;;;;;;3.50;3.20;;;22.10;63.50;;;;;;4978134;28;20532;-61
2021/08/07 16:18:54;;;;;;;4.57;2.73;;;22.00;63.70;;;;;;4978616;28;20470;-60
2021/08/07 16:21:24;;;;;;;3.77;3.00;;;22.00;64.90;;;;;;4982317;28;21139;-60
2021/08/07 16:23:51;;;;;;;3.03;2.70;;;22.10;64.60;;;;;;4997810;28;20879;-60
2021/08/07 16:26:19;;;;;;;2.67;2.43;;;22.10;65.00;;;;;;5000894;28;20470;-60
2021/08/07 16:28:46;;;;;;;2.87;2.53;;;22.10;65.60;;;;;;5001771;28;21036;-61
2021/08/07 16:31:18;;;;;;;4.40;2.67;;;22.00;65.40;;;;;;5001475;28;20465;-61
2021/08/07 16:33:47;;;;;;;3.77;2.80;;;22.00;66.40;;;;;;5001830;28;20468;-59
2021/08/07 16:36:15;;;;;;;3.53;2.67;;;22.10;66.70;;;;;;5001527;28;20889;-60
2021/08/07 16:38:44;;;;;;;3.43;2.50;;;22.20;66.90;;;;;;5000021;28;20457;-59
2021/08/07 16:41:15;;;;;;;3.37;3.07;;;22.20;67.20;;;;;;5000545;28;20497;-59
2021/08/07 16:43:42;;;;;;;3.50;3.20;;;22.30;68.20;;;;;;5002063;28;20916;-60
2021/08/07 16:46:09;;;;;;;2.80;2.43;;;22.50;69.30;;;;;;5001266;28;20472;-61
2021/08/07 16:48:45;;;;;;;5.27;3.07;;;22.90;66.80;;;;;;5001445;28;20471;-60
2021/08/07 16:51:12;;;;;;;4.33;3.07;;;23.10;67.80;;;;;;5001203;28;20475;-60
2021/08/07 16:53:39;;;;;;;5.37;3.20;;;23.20;66.00;;;;;;5001524;28;20924;-60
2021/08/07 16:56:06;;;;;;;3.17;2.87;;;23.30;66.10;;;;;;5000720;28;20444;-61
2021/08/07 16:58:34;;;;;;;3.20;2.43;;;23.30;66.20;;;;;;5000917;28;20461;-61
2021/08/07 17:01:01;;;;;;;4.33;2.63;;;23.30;66.10;;;;;;5000755;28;20916;-60
2021/08/07 17:03:30;;;;;;;3.83;2.37;;;23.30;65.90;;;;;;4992615;28;20480;-60
2021/08/07 17:06:02;;;;;;;5.27;2.67;;;23.00;66.00;;;;;;4992521;28;20477;-60
2021/08/07 17:08:29;;;;;;;4.03;2.70;;;22.70;67.80;;;;;;4984995;28;20495;-60
2021/08/07 17:10:57;;;;;;;3.50;2.73;;;22.30;69.30;;;;;;5000739;28;20547;-60
2021/08/07 17:13:24;;;;;;;2.93;2.70;;;22.10;70.40;;;;;;4992235;28;20437;-60
2021/08/07 17:15:51;;;;;;;3.43;2.53;;;22.00;71.10;;;;;;4981515;28;20524;-61
2021/08/07 17:18:18;;;;;;;2.97;2.77;;;21.80;71.50;;;;;;4981412;28;20790;-60
2021/08/07 17:20:45;;;;;;;5.23;3.23;;;21.80;72.10;;;;;;4980961;28;20481;-60
2021/08/07 17:23:16;;;;;;;3.57;3.27;;;21.70;72.80;;;;;;5000119;28;20901;-59
2021/08/07 17:25:45;;;;;;;3.07;2.80;;;21.60;73.50;;;;;;5000855;28;20464;-60
2021/08/07 17:28:16;;;;;;;2.87;2.63;;;21.40;73.90;;;;;;4999828;28;20493;-60
2021/08/07 17:30:45;;;;;;;4.07;2.70;;;21.30;73.70;;;;;;4999777;28;20488;-60
2021/08/07 17:33:12;;;;;;;3.27;3.00;;;21.20;74.90;;;;;;5000216;28;20469;-59
2021/08/07 17:35:41;;;;;;;6.13;2.40;;;21.10;74.90;;;;;;4999802;28;20527;-57
2021/08/07 17:38:08;;;;;;;3.53;2.60;;;21.10;74.90;;;;;;4998596;28;20457;-60
2021/08/07 17:40:37;;;;;;;2.60;2.40;;;21.10;75.70;;;;;;5000008;28;20488;-59
2021/08/07 17:43:04;;;;;;;3.10;2.47;;;21.20;76.00;;;;;;5000676;28;20490;-59
2021/08/07 17:45:32;;;;;;;5.20;2.93;;;21.20;76.10;;;;;;5000595;28;20472;-60
2021/08/07 17:48:03;;;;;;;4.17;2.80;;;21.10;76.60;;;;;;5000148;28;20587;-59
2021/08/07 17:50:31;;;;;;;4.60;2.33;;;21.10;76.60;;;;;;5000232;28;20457;-59
2021/08/07 17:52:57;;;;;;;3.33;2.63;;;21.10;76.80;;;;;;5000117;28;20523;-58
2021/08/07 17:55:25;;;;;;;4.27;2.60;;;21.10;77.50;;;;;;5000161;28;20469;-60